sensor_id;sensor_type;location;lat;lon;timestamp;pressure;altitude;pressure_sealevel;temperature;humidity
29941;BME280;16801;53.562;10.038;2024-02-21T00:02:31;101808.13;;;9.10;100.00
29941;BME280;16801;53.562;10.038;2024-02-21T00:05:52;101804.03;;;9.04;100.00
29941;BME280;16801;53.562;10.038;2024-02-21T00:09:14;101800.41;;;9.05;100.00
29941;BME280;16801;53.562;10.038;2024-02-21T00:12:34;101803.69;;;8.96;100.00
29941;BME280;16801;53.562;10.038;2024-02-21T00:15:55;101810.03;;;8.95;100.00
29941;BME280;16801;53.562;10.038;2024-02-21T00:19:17;101799.28;;;8.95;100.00
29941;BME280;16801;53.562;10.038;2024-02-21T00:22:38;101791.13;;;8.97;100.00
29941;BME280;16801;53.562;10.038;2024-02-21T00:25:59;101785.19;;;8.92;100.00
29941;BME280;16801;53.562;10.038;2024-02-21T00:29:23;101783.38;;;8.92;100.00
29941;BME280;16801;53.562;10.038;2024-02-21T00:32:44;101789.63;;;8.93;100.00
29941;BME280;16801;53.562;10.038;2024-02-21T00:36:07;101758.28;;;8.92;100.00
29941;BME280;16801;53.562;10.038;2024-02-21T00:39:28;101758.28;;;8.92;100.00
29941;BME280;16801;53.562;10.038;2024-02-21T00:42:49;101752.03;;;8.91;100.00
29941;BME280;16801;53.562;10.038;2024-02-21T00:46:09;101751.09;;;8.92;100.00
29941;BME280;16801;53.562;10.038;2024-02-21T00:49:30;101754.53;;;8.94;100.00
29941;BME280;16801;53.562;10.038;2024-02-21T00:52:53;101745.59;;;8.94;100.00
29941;BME280;16801;53.562;10.038;2024-02-21T00:56:14;101757.00;;;8.97;100.00
29941;BME280;16801;53.562;10.038;2024-02-21T00:59:34;101743.47;;;8.99;100.00
29941;BME280;16801;53.562;10.038;2024-02-21T01:02:55;101745.41;;;8.97;100.00
29941;BME280;16801;53.562;10.038;2024-02-21T01:06:16;101735.41;;;8.99;100.00
29941;BME280;16801;53.562;10.038;2024-02-21T01:09:38;101741.53;;;9.01;100.00
29941;BME280;16801;53.562;10.038;2024-02-21T01:13:00;101733.56;;;8.99;100.00
29941;BME280;16801;53.562;10.038;2024-02-21T01:16:21;101712.81;;;9.01;100.00
29941;BME280;16801;53.562;10.038;2024-02-21T01:19:41;101714.66;;;9.01;100.00
29941;BME280;16801;53.562;10.038;2024-02-21T01:23:03;101726.25;;;9.01;100.00
29941;BME280;16801;53.562;10.038;2024-02-21T01:26:25;101708.53;;;8.99;100.00
29941;BME280;16801;53.562;10.038;2024-02-21T01:29:46;101712.03;;;8.99;100.00
29941;BME280;16801;53.562;10.038;2024-02-21T01:33:09;101702.16;;;9.00;100.00
29941;BME280;16801;53.562;10.038;2024-02-21T01:36:30;101702.16;;;9.00;100.00
29941;BME280;16801;53.562;10.038;2024-02-21T01:39:51;101696.91;;;8.98;100.00
29941;BME280;16801;53.562;10.038;2024-02-21T01:43:17;101689.78;;;8.97;100.00
29941;BME280;16801;53.562;10.038;2024-02-21T01:46:38;101679.69;;;8.88;100.00
29941;BME280;16801;53.562;10.038;2024-02-21T02:03:22;101659.19;;;8.60;100.00
29941;BME280;16801;53.562;10.038;2024-02-21T02:06:45;101650.19;;;8.61;100.00
29941;BME280;16801;53.562;10.038;2024-02-21T02:10:07;101646.19;;;8.54;100.00
29941;BME280;16801;53.562;10.038;2024-02-21T02:13:29;101616.38;;;8.57;100.00
29941;BME280;16801;53.562;10.038;2024-02-21T02:16:50;101617.25;;;8.58;100.00
29941;BME280;16801;53.562;10.038;2024-02-21T02:20:13;101604.88;;;8.55;100.00
29941;BME280;16801;53.562;10.038;2024-02-21T02:23:36;101581.44;;;8.57;100.00
29941;BME280;16801;53.562;10.038;2024-02-21T02:26:57;101565.25;;;8.59;100.00
29941;BME280;16801;53.562;10.038;2024-02-21T02:30:17;101538.47;;;8.57;100.00
29941;BME280;16801;53.562;10.038;2024-02-21T02:33:39;101526.97;;;8.55;100.00
29941;BME280;16801;53.562;10.038;2024-02-21T02:37:00;101491.06;;;8.56;100.00
29941;BME280;16801;53.562;10.038;2024-02-21T02:40:22;101500.97;;;8.56;100.00
29941;BME280;16801;53.562;10.038;2024-02-21T02:43:43;101487.00;;;8.63;100.00
29941;BME280;16801;53.562;10.038;2024-02-21T02:47:04;101488.69;;;8.64;100.00
29941;BME280;16801;53.562;10.038;2024-02-21T02:50:26;101506.13;;;8.71;100.00
29941;BME280;16801;53.562;10.038;2024-02-21T02:53:47;101506.75;;;8.75;100.00
29941;BME280;16801;53.562;10.038;2024-02-21T02:57:09;101517.38;;;8.76;100.00
29941;BME280;16801;53.562;10.038;2024-02-21T03:00:30;101516.13;;;8.82;100.00
29941;BME280;16801;53.562;10.038;2024-02-21T03:03:55;101527.50;;;8.85;100.00
29941;BME280;16801;53.562;10.038;2024-02-21T03:07:16;101547.81;;;8.90;100.00
29941;BME280;16801;53.562;10.038;2024-02-21T03:10:37;101546.63;;;8.94;100.00
29941;BME280;16801;53.562;10.038;2024-02-21T03:13:59;101555.31;;;8.97;100.00
29941;BME280;16801;53.562;10.038;2024-02-21T03:17:20;101559.88;;;8.97;100.00
29941;BME280;16801;53.562;10.038;2024-02-21T03:20:41;101554.25;;;9.00;100.00
29941;BME280;16801;53.562;10.038;2024-02-21T03:24:01;101542.31;;;9.04;100.00
29941;BME280;16801;53.562;10.038;2024-02-21T03:27:22;101540.38;;;9.06;100.00
29941;BME280;16801;53.562;10.038;2024-02-21T03:30:44;101547.34;;;9.08;100.00
29941;BME280;16801;53.562;10.038;2024-02-21T03:34:05;101555.09;;;9.13;100.00
29941;BME280;16801;53.562;10.038;2024-02-21T03:37:26;101544.09;;;9.16;100.00
29941;BME280;16801;53.562;10.038;2024-02-21T03:40:47;101559.41;;;9.15;100.00
29941;BME280;16801;53.562;10.038;2024-02-21T03:44:08;101555.72;;;9.16;100.00
29941;BME280;16801;53.562;10.038;2024-02-21T03:47:30;101540.47;;;9.17;100.00
29941;BME280;16801;53.562;10.038;2024-02-21T03:50:53;101549.72;;;9.13;100.00
29941;BME280;16801;53.562;10.038;2024-02-21T03:54:14;101554.34;;;9.11;100.00
29941;BME280;16801;53.562;10.038;2024-02-21T03:57:35;101541.03;;;9.09;100.00
29941;BME280;16801;53.562;10.038;2024-02-21T04:00:56;101542.22;;;9.05;100.00
29941;BME280;16801;53.562;10.038;2024-02-21T04:04:18;101530.16;;;8.98;100.00
29941;BME280;16801;53.562;10.038;2024-02-21T04:07:39;101532.56;;;8.90;100.00
29941;BME280;16801;53.562;10.038;2024-02-21T04:11:00;101538.13;;;8.87;100.00
29941;BME280;16801;53.562;10.038;2024-02-21T04:14:21;101527.81;;;8.81;100.00
29941;BME280;16801;53.562;10.038;2024-02-21T04:17:42;101531.38;;;8.81;100.00
29941;BME280;16801;53.562;10.038;2024-02-21T04:21:05;101517.06;;;8.81;100.00
29941;BME280;16801;53.562;10.038;2024-02-21T04:24:26;101524.25;;;8.80;100.00
29941;BME280;16801;53.562;10.038;2024-02-21T04:27:47;101516.19;;;8.80;100.00
29941;BME280;16801;53.562;10.038;2024-02-21T04:31:08;101512.69;;;8.80;100.00
29941;BME280;16801;53.562;10.038;2024-02-21T04:34:29;101510.06;;;8.78;100.00
29941;BME280;16801;53.562;10.038;2024-02-21T04:37:54;101527.31;;;8.76;100.00
29941;BME280;16801;53.562;10.038;2024-02-21T04:41:15;101509.13;;;8.79;100.00
29941;BME280;16801;53.562;10.038;2024-02-21T04:44:38;101516.88;;;8.71;100.00
29941;BME280;16801;53.562;10.038;2024-02-21T04:47:59;101505.47;;;8.68;100.00
29941;BME280;16801;53.562;10.038;2024-02-21T04:51:19;101512.69;;;8.67;100.00
29941;BME280;16801;53.562;10.038;2024-02-21T04:54:42;101497.75;;;8.63;100.00
29941;BME280;16801;53.562;10.038;2024-02-21T04:58:03;101505.91;;;8.62;100.00
29941;BME280;16801;53.562;10.038;2024-02-21T05:01:24;101507.00;;;8.59;100.00
29941;BME280;16801;53.562;10.038;2024-02-21T05:04:45;101505.06;;;8.61;100.00
29941;BME280;16801;53.562;10.038;2024-02-21T05:08:06;101497.31;;;8.57;100.00
29941;BME280;16801;53.562;10.038;2024-02-21T05:11:28;101503.66;;;8.56;100.00
29941;BME280;16801;53.562;10.038;2024-02-21T05:14:49;101498.16;;;8.57;100.00
29941;BME280;16801;53.562;10.038;2024-02-21T05:18:10;101491.28;;;8.53;100.00
29941;BME280;16801;53.562;10.038;2024-02-21T05:21:30;101482.59;;;8.50;100.00
29941;BME280;16801;53.562;10.038;2024-02-21T05:24:51;101486.03;;;8.52;100.00
29941;BME280;16801;53.562;10.038;2024-02-21T05:28:14;101487.84;;;8.51;100.00
29941;BME280;16801;53.562;10.038;2024-02-21T05:31:54;101496.78;;;8.52;100.00
29941;BME280;16801;53.562;10.038;2024-02-21T05:35:16;101471.63;;;8.53;100.00
29941;BME280;16801;53.562;10.038;2024-02-21T05:38:37;101482.47;;;8.51;100.00
29941;BME280;16801;53.562;10.038;2024-02-21T05:41:58;101481.63;;;8.51;100.00
29941;BME280;16801;53.562;10.038;2024-02-21T05:45:20;101484.19;;;8.52;100.00
29941;BME280;16801;53.562;10.038;2024-02-21T05:48:41;101481.63;;;8.51;100.00
29941;BME280;16801;53.562;10.038;2024-02-21T05:52:02;101488.72;;;8.52;100.00
29941;BME280;16801;53.562;10.038;2024-02-21T05:55:23;101481.63;;;8.51;100.00
29941;BME280;16801;53.562;10.038;2024-02-21T05:58:45;101480.88;;;8.49;100.00
29941;BME280;16801;53.562;10.038;2024-02-21T06:02:07;101478.19;;;8.49;100.00
29941;BME280;16801;53.562;10.038;2024-02-21T06:05:28;101478.19;;;8.49;100.00
29941;BME280;16801;53.562;10.038;2024-02-21T06:08:50;101478.94;;;8.51;100.00
29941;BME280;16801;53.562;10.038;2024-02-21T06:12:11;101489.69;;;8.51;100.00
29941;BME280;16801;53.562;10.038;2024-02-21T06:15:32;101484.84;;;8.56;100.00
29941;BME280;16801;53.562;10.038;2024-02-21T06:18:54;101497.94;;;8.60;100.00
29941;BME280;16801;53.562;10.038;2024-02-21T06:22:15;101500.44;;;8.63;100.00
29941;BME280;16801;53.562;10.038;2024-02-21T06:25:36;101492.78;;;8.70;100.00
29941;BME280;16801;53.562;10.038;2024-02-21T06:28:57;101498.50;;;8.65;100.00
29941;BME280;16801;53.562;10.038;2024-02-21T06:32:19;101488.19;;;8.59;100.00
29941;BME280;16801;53.562;10.038;2024-02-21T06:35:41;101489.03;;;8.60;100.00
29941;BME280;16801;53.562;10.038;2024-02-21T06:39:05;101492.69;;;8.59;100.00
29941;BME280;16801;53.562;10.038;2024-02-21T06:42:27;101493.66;;;8.58;100.00
29941;BME280;16801;53.562;10.038;2024-02-21T06:45:49;101493.66;;;8.58;100.00
29941;BME280;16801;53.562;10.038;2024-02-21T06:49:11;101486.66;;;8.55;100.00
29941;BME280;16801;53.562;10.038;2024-02-21T06:52:36;101487.41;;;8.57;100.00
29941;BME280;16801;53.562;10.038;2024-02-21T06:55:58;101488.94;;;8.61;100.00
29941;BME280;16801;53.562;10.038;2024-02-21T06:59:18;101487.31;;;8.59;100.00
29941;BME280;16801;53.562;10.038;2024-02-21T07:02:39;101488.94;;;8.61;100.00
29941;BME280;16801;53.562;10.038;2024-02-21T07:06:01;101495.16;;;8.62;100.00
29941;BME280;16801;53.562;10.038;2024-02-21T07:09:23;101491.50;;;8.63;100.00
29941;BME280;16801;53.562;10.038;2024-02-21T07:12:44;101491.94;;;8.69;100.00
29941;BME280;16801;53.562;10.038;2024-02-21T07:16:05;101487.38;;;8.70;100.00
29941;BME280;16801;53.562;10.038;2024-02-21T07:19:26;101476.63;;;8.70;100.00
29941;BME280;16801;53.562;10.038;2024-02-21T07:22:47;101480.63;;;8.77;100.00
29941;BME280;16801;53.562;10.038;2024-02-21T07:26:09;101498.06;;;8.71;100.00
29941;BME280;16801;53.562;10.038;2024-02-21T07:29:30;101493.50;;;8.72;100.00
29941;BME280;16801;53.562;10.038;2024-02-21T07:32:51;101496.75;;;8.77;100.00
29941;BME280;16801;53.562;10.038;2024-02-21T07:36:12;101494.69;;;8.80;100.00
29941;BME280;16801;53.562;10.038;2024-02-21T07:39:35;101501.56;;;8.84;100.00
29941;BME280;16801;53.562;10.038;2024-02-21T07:42:58;101504.69;;;8.91;100.00
29941;BME280;16801;53.562;10.038;2024-02-21T07:46:19;101507.06;;;8.83;100.00
29941;BME280;16801;53.562;10.038;2024-02-21T07:49:41;101512.31;;;8.84;100.00
29941;BME280;16801;53.562;10.038;2024-02-21T07:53:02;101500.06;;;8.80;100.00
29941;BME280;16801;53.562;10.038;2024-02-21T07:56:27;101493.63;;;8.83;100.00
29941;BME280;16801;53.562;10.038;2024-02-21T07:59:49;101501.69;;;8.83;100.00
29941;BME280;16801;53.562;10.038;2024-02-21T08:03:11;101505.00;;;8.86;100.00
29941;BME280;16801;53.562;10.038;2024-02-21T08:06:31;101504.81;;;8.90;100.00
29941;BME280;16801;53.562;10.038;2024-02-21T08:09:52;101501.34;;;9.00;100.00
29941;BME280;16801;53.562;10.038;2024-02-21T08:13:13;101497.25;;;9.07;100.00
29941;BME280;16801;53.562;10.038;2024-02-21T08:16:36;101497.88;;;9.11;100.00
29941;BME280;16801;53.562;10.038;2024-02-21T08:19:56;101492.94;;;9.05;100.00
29941;BME280;16801;53.562;10.038;2024-02-21T08:23:18;101488.41;;;9.18;100.00
29941;BME280;16801;53.562;10.038;2024-02-21T08:26:40;101481.50;;;9.14;100.00
29941;BME280;16801;53.562;10.038;2024-02-21T08:30:01;101483.34;;;9.13;100.00
29941;BME280;16801;53.562;10.038;2024-02-21T08:33:24;101485.75;;;9.05;100.00
29941;BME280;16801;53.562;10.038;2024-02-21T08:36:44;101480.41;;;9.16;100.00
29941;BME280;16801;53.562;10.038;2024-02-21T08:40:06;101479.91;;;9.11;100.00
29941;BME280;16801;53.562;10.038;2024-02-21T08:43:29;101477.78;;;8.91;100.00
29941;BME280;16801;53.562;10.038;2024-02-21T08:46:50;101471.63;;;9.02;100.00
29941;BME280;16801;53.562;10.038;2024-02-21T08:50:13;101469.66;;;9.16;100.00
29941;BME280;16801;53.562;10.038;2024-02-21T08:53:34;101471.56;;;9.27;100.00
29941;BME280;16801;53.562;10.038;2024-02-21T08:56:55;101478.13;;;9.23;100.00
29941;BME280;16801;53.562;10.038;2024-02-21T09:00:16;101482.97;;;9.30;100.00
29941;BME280;16801;53.562;10.038;2024-02-21T09:03:38;101477.72;;;9.16;100.00
29941;BME280;16801;53.562;10.038;2024-02-21T09:07:00;101483.09;;;8.93;100.00
29941;BME280;16801;53.562;10.038;2024-02-21T09:10:21;101479.81;;;9.00;100.00
29941;BME280;16801;53.562;10.038;2024-02-21T09:13:42;101475.19;;;9.02;100.00
29941;BME280;16801;53.562;10.038;2024-02-21T09:17:03;101472.25;;;9.18;100.00
29941;BME280;16801;53.562;10.038;2024-02-21T09:20:24;101473.66;;;9.11;100.00
29941;BME280;16801;53.562;10.038;2024-02-21T09:23:46;101475.03;;;8.93;100.00
29941;BME280;16801;53.562;10.038;2024-02-21T09:27:07;101468.66;;;8.94;100.00
29941;BME280;16801;53.562;10.038;2024-02-21T09:30:29;101462.66;;;8.90;100.00
29941;BME280;16801;53.562;10.038;2024-02-21T09:33:50;101458.19;;;9.02;100.00
29941;BME280;16801;53.562;10.038;2024-02-21T09:37:11;101452.41;;;8.95;100.00
29941;BME280;16801;53.562;10.038;2024-02-21T09:40:33;101453.63;;;8.78;100.00
29941;BME280;16801;53.562;10.038;2024-02-21T09:43:58;101451.59;;;8.82;100.00
29941;BME280;16801;53.562;10.038;2024-02-21T09:47:24;101444.44;;;8.94;100.00
29941;BME280;16801;53.562;10.038;2024-02-21T09:50:46;101446.06;;;8.96;100.00
29941;BME280;16801;53.562;10.038;2024-02-21T09:54:08;101442.38;;;8.97;100.00
29941;BME280;16801;53.562;10.038;2024-02-21T09:57:30;101433.41;;;8.85;100.00
29941;BME280;16801;53.562;10.038;2024-02-21T10:00:51;101443.13;;;8.99;100.00
29941;BME280;16801;53.562;10.038;2024-02-21T10:04:12;101437.91;;;8.85;100.00
29941;BME280;16801;53.562;10.038;2024-02-21T10:07:33;101441.56;;;8.97;100.00
29941;BME280;16801;53.562;10.038;2024-02-21T10:10:54;101437.91;;;8.85;100.00
29941;BME280;16801;53.562;10.038;2024-02-21T10:14:20;101436.63;;;8.91;100.00
29941;BME280;16801;53.562;10.038;2024-02-21T10:17:41;101435.81;;;9.01;100.00
29941;BME280;16801;53.562;10.038;2024-02-21T10:21:02;101437.44;;;9.04;100.00
29941;BME280;16801;53.562;10.038;2024-02-21T10:24:26;101427.53;;;9.04;100.00
29941;BME280;16801;53.562;10.038;2024-02-21T10:27:49;101442.59;;;9.07;100.00
29941;BME280;16801;53.562;10.038;2024-02-21T10:31:21;101433.78;;;9.05;100.00
29941;BME280;16801;53.562;10.038;2024-02-21T10:34:42;101434.06;;;9.13;100.00
29941;BME280;16801;53.562;10.038;2024-02-21T10:38:03;101437.03;;;9.21;100.00
29941;BME280;16801;53.562;10.038;2024-02-21T10:41:24;101430.34;;;9.26;100.00
29941;BME280;16801;53.562;10.038;2024-02-21T10:44:50;101417.00;;;9.25;100.00
29941;BME280;16801;53.562;10.038;2024-02-21T10:48:14;101422.28;;;9.26;100.00
29941;BME280;16801;53.562;10.038;2024-02-21T10:51:37;101411.91;;;9.33;100.00
29941;BME280;16801;53.562;10.038;2024-02-21T10:55:03;101413.66;;;9.34;100.00
29941;BME280;16801;53.562;10.038;2024-02-21T10:58:26;101411.75;;;9.23;100.00
29941;BME280;16801;53.562;10.038;2024-02-21T11:01:50;101389.66;;;9.31;100.00
29941;BME280;16801;53.562;10.038;2024-02-21T11:05:13;101392.06;;;9.23;100.00
29941;BME280;16801;53.562;10.038;2024-02-21T11:08:35;101394.28;;;9.29;100.00
29941;BME280;16801;53.562;10.038;2024-02-21T11:11:56;101396.22;;;9.27;100.00
29941;BME280;16801;53.562;10.038;2024-02-21T11:15:18;101390.13;;;9.25;100.00
29941;BME280;16801;53.562;10.038;2024-02-21T11:18:39;101395.38;;;9.26;100.00
29941;BME280;16801;53.562;10.038;2024-02-21T11:22:02;101373.84;;;9.26;100.00
29941;BME280;16801;53.562;10.038;2024-02-21T11:25:24;101377.53;;;9.25;100.00
29941;BME280;16801;53.562;10.038;2024-02-21T11:28:56;101378.88;;;9.31;100.00
29941;BME280;16801;53.562;10.038;2024-02-21T11:32:18;101376.53;;;9.26;100.00
29941;BME280;16801;53.562;10.038;2024-02-21T11:35:40;101372.03;;;9.27;100.00
29941;BME280;16801;53.562;10.038;2024-02-21T11:39:04;101363.00;;;9.28;100.00
29941;BME280;16801;53.562;10.038;2024-02-21T11:42:26;101364.22;;;9.35;100.00
29941;BME280;16801;53.562;10.038;2024-02-21T11:45:47;101359.56;;;9.26;100.00
29941;BME280;16801;53.562;10.038;2024-02-21T11:49:08;101350.16;;;9.31;100.00
29941;BME280;16801;53.562;10.038;2024-02-21T11:52:29;101349.75;;;9.25;100.00
29941;BME280;16801;53.562;10.038;2024-02-21T11:55:51;101348.91;;;9.24;100.00
29941;BME280;16801;53.562;10.038;2024-02-21T11:59:14;101340.13;;;9.33;100.00
29941;BME280;16801;53.562;10.038;2024-02-21T12:02:36;101319.81;;;9.29;100.00
29941;BME280;16801;53.562;10.038;2024-02-21T12:05:57;101324.69;;;9.24;100.00
29941;BME280;16801;53.562;10.038;2024-02-21T12:09:19;101322.72;;;9.26;100.00
29941;BME280;16801;53.562;10.038;2024-02-21T12:12:41;101310.78;;;9.30;100.00
29941;BME280;16801;53.562;10.038;2024-02-21T12:16:02;101318.09;;;9.28;100.00
29941;BME280;16801;53.562;10.038;2024-02-21T12:19:23;101318.47;;;9.24;100.00
29941;BME280;16801;53.562;10.038;2024-02-21T12:22:44;101309.53;;;9.23;100.00
29941;BME280;16801;53.562;10.038;2024-02-21T12:26:05;101309.19;;;9.28;100.00
29941;BME280;16801;53.562;10.038;2024-02-21T12:29:27;101305.50;;;9.29;100.00
29941;BME280;16801;53.562;10.038;2024-02-21T12:32:49;101312.34;;;9.22;100.00
29941;BME280;16801;53.562;10.038;2024-02-21T12:36:10;101310.00;;;9.17;100.00
29941;BME280;16801;53.562;10.038;2024-02-21T12:39:31;101319.91;;;9.17;100.00
29941;BME280;16801;53.562;10.038;2024-02-21T12:42:52;101311.91;;;9.04;100.00
29941;BME280;16801;53.562;10.038;2024-02-21T12:46:15;101298.72;;;9.12;100.00
29941;BME280;16801;53.562;10.038;2024-02-21T12:49:36;101295.28;;;9.10;100.00
29941;BME280;16801;53.562;10.038;2024-02-21T12:52:57;101293.06;;;9.04;100.00
29941;BME280;16801;53.562;10.038;2024-02-21T12:56:18;101294.28;;;9.00;100.00
29941;BME280;16801;53.562;10.038;2024-02-21T12:59:39;101276.81;;;9.06;100.00
29941;BME280;16801;53.562;10.038;2024-02-21T13:03:02;101275.13;;;9.05;100.00
29941;BME280;16801;53.562;10.038;2024-02-21T13:06:23;101272.56;;;9.14;100.00
29941;BME280;16801;53.562;10.038;2024-02-21T13:09:44;101274.69;;;9.22;100.00
29941;BME280;16801;53.562;10.038;2024-02-21T13:13:06;101265.53;;;9.35;100.00
29941;BME280;16801;53.562;10.038;2024-02-21T13:16:27;101264.69;;;9.35;100.00
29941;BME280;16801;53.562;10.038;2024-02-21T13:19:49;101257.22;;;9.27;100.00
29941;BME280;16801;53.562;10.038;2024-02-21T13:23:10;101243.44;;;9.54;100.00
29941;BME280;16801;53.562;10.038;2024-02-21T13:26:31;101235.50;;;9.52;100.00
29941;BME280;16801;53.562;10.038;2024-02-21T13:29:51;101239.88;;;9.53;100.00
29941;BME280;16801;53.562;10.038;2024-02-21T13:33:13;101222.91;;;9.53;100.00
29941;BME280;16801;53.562;10.038;2024-02-21T13:36:36;101216.88;;;9.49;100.00
29941;BME280;16801;53.562;10.038;2024-02-21T13:39:57;101196.72;;;9.55;100.00
29941;BME280;16801;53.562;10.038;2024-02-21T13:43:18;101188.03;;;9.62;100.00
29941;BME280;16801;53.562;10.038;2024-02-21T13:46:39;101185.69;;;9.58;100.00
29941;BME280;16801;53.562;10.038;2024-02-21T13:50:00;101174.06;;;9.57;100.00
29941;BME280;16801;53.562;10.038;2024-02-21T13:53:22;101164.53;;;9.64;100.00
29941;BME280;16801;53.562;10.038;2024-02-21T13:56:43;101152.16;;;9.73;100.00
29941;BME280;16801;53.562;10.038;2024-02-21T14:00:05;101133.53;;;9.92;100.00
29941;BME280;16801;53.562;10.038;2024-02-21T14:03:32;101127.06;;;9.95;100.00
29941;BME280;16801;53.562;10.038;2024-02-21T14:06:53;101118.00;;;9.85;100.00
29941;BME280;16801;53.562;10.038;2024-02-21T14:10:16;101108.94;;;9.97;100.00
29941;BME280;16801;53.562;10.038;2024-02-21T14:13:38;101100.06;;;10.17;100.00
29941;BME280;16801;53.562;10.038;2024-02-21T14:16:59;101087.31;;;10.08;100.00
29941;BME280;16801;53.562;10.038;2024-02-21T14:20:20;101072.16;;;10.07;100.00
29941;BME280;16801;53.562;10.038;2024-02-21T14:23:41;101058.56;;;10.19;100.00
29941;BME280;16801;53.562;10.038;2024-02-21T14:27:04;101052.31;;;10.39;100.00
29941;BME280;16801;53.562;10.038;2024-02-21T14:30:25;101046.50;;;10.34;100.00
29941;BME280;16801;53.562;10.038;2024-02-21T14:33:46;101039.88;;;10.69;100.00
29941;BME280;16801;53.562;10.038;2024-02-21T14:37:07;101025.50;;;10.59;100.00
29941;BME280;16801;53.562;10.038;2024-02-21T14:40:28;101022.44;;;10.42;100.00
29941;BME280;16801;53.562;10.038;2024-02-21T14:43:50;101006.84;;;10.46;100.00
29941;BME280;16801;53.562;10.038;2024-02-21T14:47:12;101007.69;;;10.47;100.00
29941;BME280;16801;53.562;10.038;2024-02-21T14:50:33;101005.06;;;10.35;100.00
29941;BME280;16801;53.562;10.038;2024-02-21T14:53:54;101006.13;;;10.23;100.00
29941;BME280;16801;53.562;10.038;2024-02-21T14:57:15;100996.44;;;10.21;100.00
29941;BME280;16801;53.562;10.038;2024-02-21T15:00:37;100991.47;;;10.16;100.00
29941;BME280;16801;53.562;10.038;2024-02-21T15:03:58;100988.53;;;10.08;100.00
29941;BME280;16801;53.562;10.038;2024-02-21T15:07:22;100978.25;;;10.13;100.00
29941;BME280;16801;53.562;10.038;2024-02-21T15:10:44;100966.13;;;10.08;100.00
29941;BME280;16801;53.562;10.038;2024-02-21T15:14:05;100962.22;;;10.12;100.00
29941;BME280;16801;53.562;10.038;2024-02-21T15:17:27;100953.66;;;10.07;100.00
29941;BME280;16801;53.562;10.038;2024-02-21T15:20:48;100942.41;;;10.02;100.00
29941;BME280;16801;53.562;10.038;2024-02-21T15:24:09;100942.16;;;10.05;100.00
29941;BME280;16801;53.562;10.038;2024-02-21T15:27:30;100932.63;;;10.01;100.00
29941;BME280;16801;53.562;10.038;2024-02-21T15:30:51;100924.41;;;10.02;100.00
29941;BME280;16801;53.562;10.038;2024-02-21T15:34:14;100915.88;;;9.97;100.00
29941;BME280;16801;53.562;10.038;2024-02-21T15:37:36;100901.97;;;9.92;100.00
29941;BME280;16801;53.562;10.038;2024-02-21T15:40:57;100904.25;;;9.97;100.00
29941;BME280;16801;53.562;10.038;2024-02-21T15:44:18;100898.94;;;9.86;100.00
29941;BME280;16801;53.562;10.038;2024-02-21T15:47:40;100931.38;;;9.84;100.00
29941;BME280;16801;53.562;10.038;2024-02-21T15:51:03;100891.97;;;9.83;100.00
29941;BME280;16801;53.562;10.038;2024-02-21T15:54:24;100891.25;;;9.81;100.00
29941;BME280;16801;53.562;10.038;2024-02-21T15:57:47;100886.88;;;9.80;100.00
29941;BME280;16801;53.562;10.038;2024-02-21T16:01:08;100869.13;;;9.78;100.00
29941;BME280;16801;53.562;10.038;2024-02-21T16:04:31;100861.78;;;9.80;100.00
29941;BME280;16801;53.562;10.038;2024-02-21T16:07:53;100836.44;;;9.82;100.00
29941;BME280;16801;53.562;10.038;2024-02-21T16:11:14;100827.34;;;9.83;100.00
29941;BME280;16801;53.562;10.038;2024-02-21T16:14:36;100812.13;;;9.73;100.00
29941;BME280;16801;53.562;10.038;2024-02-21T16:17:58;100796.38;;;9.68;100.00
29941;BME280;16801;53.562;10.038;2024-02-21T16:21:19;100769.25;;;9.60;100.00
29941;BME280;16801;53.562;10.038;2024-02-21T16:24:41;100748.84;;;9.57;100.00
29941;BME280;16801;53.562;10.038;2024-02-21T16:28:02;100766.13;;;9.55;100.00
29941;BME280;16801;53.562;10.038;2024-02-21T16:31:23;100795.44;;;9.58;100.00
29941;BME280;16801;53.562;10.038;2024-02-21T16:34:44;100802.22;;;9.52;100.00
29941;BME280;16801;53.562;10.038;2024-02-21T16:38:05;100814.69;;;9.53;100.00
29941;BME280;16801;53.562;10.038;2024-02-21T16:41:27;100808.72;;;9.50;100.00
29941;BME280;16801;53.562;10.038;2024-02-21T16:44:48;100815.09;;;9.49;100.00
29941;BME280;16801;53.562;10.038;2024-02-21T16:48:10;100820.19;;;9.52;100.00
29941;BME280;16801;53.562;10.038;2024-02-21T16:51:31;100807.75;;;9.51;100.00
29941;BME280;16801;53.562;10.038;2024-02-21T16:54:52;100809.31;;;9.53;100.00
29941;BME280;16801;53.562;10.038;2024-02-21T16:58:14;100808.56;;;9.51;100.00
29941;BME280;16801;53.562;10.038;2024-02-21T17:01:35;100796.50;;;9.46;100.00
29941;BME280;16801;53.562;10.038;2024-02-21T17:04:58;100795.53;;;9.47;100.00
29941;BME280;16801;53.562;10.038;2024-02-21T17:08:19;100791.59;;;9.51;100.00
29941;BME280;16801;53.562;10.038;2024-02-21T17:11:40;100778.41;;;9.48;100.00
29941;BME280;16801;53.562;10.038;2024-02-21T17:15:03;100773.41;;;9.43;100.00
29941;BME280;16801;53.562;10.038;2024-02-21T17:18:23;100771.31;;;9.47;100.00
29941;BME280;16801;53.562;10.038;2024-02-21T17:21:46;100765.41;;;9.53;100.00
29941;BME280;16801;53.562;10.038;2024-02-21T17:25:07;100759.84;;;9.45;100.00
29941;BME280;16801;53.562;10.038;2024-02-21T17:28:30;100746.44;;;9.34;100.00
29941;BME280;16801;53.562;10.038;2024-02-21T17:31:52;100741.66;;;9.37;100.00
29941;BME280;16801;53.562;10.038;2024-02-21T17:35:13;100739.34;;;9.33;100.00